createdAt,value
2019-05-30T00:01:36.353Z,99.90
2019-05-30T00:03:28.740Z,99.90
2019-05-30T00:05:20.575Z,99.90
2019-05-30T00:07:13.410Z,99.90
2019-05-30T00:09:07.128Z,99.90
2019-05-30T00:11:00.619Z,99.90
2019-05-30T00:12:54.680Z,99.90
2019-05-30T00:14:48.912Z,99.90
2019-05-30T00:16:40.868Z,99.90
2019-05-30T00:18:33.287Z,99.90
2019-05-30T00:20:25.447Z,99.90
2019-05-30T00:22:17.430Z,99.90
2019-05-30T00:24:09.930Z,99.90
2019-05-30T00:26:03.380Z,99.90
2019-05-30T00:27:57.055Z,99.90
2019-05-30T00:29:49.284Z,99.90
2019-05-30T00:31:41.492Z,99.90
2019-05-30T00:33:33.558Z,99.90
2019-05-30T00:35:26.990Z,99.90
2019-05-30T00:37:19.354Z,99.90
2019-05-30T00:39:11.536Z,99.90
2019-05-30T00:41:04.175Z,99.90
2019-05-30T00:42:57.872Z,99.90
2019-05-30T00:44:50.263Z,99.90
2019-05-30T00:46:42.368Z,99.90
2019-05-30T00:48:34.526Z,99.90
2019-05-30T00:50:27.126Z,99.90
2019-05-30T00:52:19.355Z,99.90
2019-05-30T00:54:11.609Z,99.90
2019-05-30T00:56:04.768Z,99.90
2019-05-30T00:57:56.823Z,99.90
2019-05-30T00:59:49.085Z,99.90
2019-05-30T01:01:41.622Z,99.90
2019-05-30T01:03:34.026Z,99.90
2019-05-30T01:05:27.312Z,99.90
2019-05-30T01:07:20.165Z,99.90
2019-05-30T01:09:12.457Z,99.90
2019-05-30T01:11:05.300Z,99.90
2019-05-30T01:12:57.555Z,99.90
2019-05-30T01:14:49.976Z,99.90
2019-05-30T01:16:43.068Z,99.90
2019-05-30T01:18:35.066Z,99.90
2019-05-30T01:20:27.263Z,99.90
2019-05-30T01:22:19.475Z,99.90
2019-05-30T01:24:11.449Z,99.90
2019-05-30T01:26:03.637Z,99.90
2019-05-30T01:27:55.581Z,99.90
2019-05-30T01:29:49.074Z,99.90
2019-05-30T01:31:42.396Z,99.90
2019-05-30T01:33:34.527Z,99.90
2019-05-30T01:35:26.704Z,99.90
2019-05-30T01:37:18.991Z,99.90
2019-05-30T01:39:11.020Z,99.90
2019-05-30T01:41:04.168Z,99.90
2019-05-30T01:42:57.970Z,99.90
2019-05-30T01:44:50.095Z,99.90
2019-05-30T01:46:42.196Z,99.90
2019-05-30T01:48:34.404Z,99.90
2019-05-30T01:50:26.486Z,99.90
2019-05-30T01:52:18.991Z,99.90
2019-05-30T01:54:11.275Z,99.90
2019-05-30T01:56:04.739Z,99.90
2019-05-30T01:57:58.755Z,99.90
2019-05-30T01:59:51.108Z,99.90
2019-05-30T02:01:43.236Z,99.90
2019-05-30T02:03:35.316Z,99.90
2019-05-30T02:05:27.602Z,99.90
2019-05-30T02:07:19.853Z,99.90
2019-05-30T02:09:11.883Z,99.90
2019-05-30T02:11:05.467Z,99.90
2019-05-30T02:12:57.817Z,99.90
2019-05-30T02:14:50.108Z,99.90
2019-05-30T02:16:42.355Z,99.90
2019-05-30T02:18:34.875Z,99.90
2019-05-30T02:20:28.052Z,99.90
2019-05-30T02:22:19.974Z,99.90
2019-05-30T02:24:12.366Z,99.90
2019-05-30T02:26:06.341Z,99.90
2019-05-30T02:27:59.992Z,99.90
2019-05-30T02:29:52.075Z,99.90
2019-05-30T02:31:44.351Z,99.90
2019-05-30T02:33:36.264Z,99.90
2019-05-30T02:35:28.434Z,99.90
2019-05-30T02:37:20.672Z,99.90
2019-05-30T02:39:12.580Z,99.90
2019-05-30T02:41:05.776Z,99.90
2019-05-30T02:42:58.721Z,99.90
2019-05-30T02:44:50.687Z,99.90
2019-05-30T02:46:42.995Z,99.90
2019-05-30T02:48:35.423Z,99.90
2019-05-30T02:50:27.413Z,99.90
2019-05-30T02:52:19.674Z,99.90
2019-05-30T02:54:13.272Z,99.90
2019-05-30T02:56:05.969Z,99.90
2019-05-30T02:57:59.257Z,99.90
2019-05-30T02:59:51.271Z,99.90
2019-05-30T03:01:59.996Z,99.90
2019-05-30T03:03:38.945Z,99.90
2019-05-30T03:05:32.706Z,99.90
2019-05-30T03:07:24.905Z,99.90
2019-05-30T03:09:17.190Z,99.90
2019-05-30T03:11:12.341Z,99.90
2019-05-30T03:13:04.098Z,99.90
2019-05-30T03:14:57.405Z,99.90
2019-05-30T03:16:49.697Z,99.90
2019-05-30T03:18:41.873Z,99.90
2019-05-30T03:20:34.511Z,99.90
2019-05-30T03:22:28.020Z,99.90
2019-05-30T03:24:20.377Z,99.90
2019-05-30T03:26:15.482Z,99.90
2019-05-30T03:28:07.536Z,99.90
2019-05-30T03:30:00.044Z,99.90
2019-05-30T03:31:52.524Z,99.90
2019-05-30T03:33:45.353Z,99.90
2019-05-30T03:35:42.839Z,99.90
2019-05-30T03:37:31.367Z,99.90
2019-05-30T03:39:23.708Z,99.90
2019-05-30T03:41:16.017Z,99.90
2019-05-30T03:43:09.141Z,99.90
2019-05-30T03:45:01.638Z,99.90
2019-05-30T03:46:55.317Z,99.90
2019-05-30T03:48:49.050Z,99.90
2019-05-30T03:50:42.867Z,99.90
2019-05-30T03:52:34.901Z,99.90
2019-05-30T03:54:27.252Z,99.90
2019-05-30T03:56:21.221Z,99.90
2019-05-30T03:58:16.676Z,99.90
2019-05-30T04:00:14.529Z,99.90
2019-05-30T04:02:15.750Z,99.90
2019-05-30T04:04:14.537Z,99.90
2019-05-30T04:06:10.107Z,99.90
2019-05-30T04:08:03.756Z,99.90
2019-05-30T04:09:57.279Z,99.90
2019-05-30T04:11:53.953Z,99.90
2019-05-30T04:13:47.460Z,99.90
2019-05-30T04:15:40.216Z,99.90
2019-05-30T04:17:32.357Z,99.90
2019-05-30T04:19:24.280Z,99.90
2019-05-30T04:21:19.361Z,99.90
2019-05-30T04:23:10.829Z,99.90
2019-05-30T04:25:05.889Z,99.90
2019-05-30T04:26:59.798Z,99.90
2019-05-30T04:28:51.904Z,99.90
2019-05-30T04:30:44.155Z,99.90
2019-05-30T04:32:37.650Z,99.90
2019-05-30T04:34:30.010Z,99.90
2019-05-30T04:36:22.138Z,99.90
2019-05-30T04:38:17.098Z,99.90
2019-05-30T04:40:11.283Z,99.90
2019-05-30T04:42:04.036Z,99.90
2019-05-30T04:43:56.386Z,99.90
2019-05-30T04:45:48.449Z,99.90
2019-05-30T04:47:42.193Z,99.90
2019-05-30T04:49:34.495Z,99.90
2019-05-30T04:51:26.864Z,99.90
2019-05-30T04:53:20.963Z,99.90
2019-05-30T04:55:15.994Z,99.90
2019-05-30T04:57:08.547Z,99.90
2019-05-30T04:59:00.780Z,99.90
2019-05-30T05:00:53.001Z,99.90
2019-05-30T05:02:45.464Z,99.90
2019-05-30T05:04:37.713Z,99.90
2019-05-30T05:06:29.726Z,99.90
2019-05-30T05:08:22.204Z,99.90
2019-05-30T05:10:16.060Z,99.90
2019-05-30T05:12:08.659Z,99.90
2019-05-30T05:14:00.745Z,99.90
2019-05-30T05:15:52.978Z,99.90
2019-05-30T05:17:45.010Z,99.90
2019-05-30T05:19:36.977Z,99.90
2019-05-30T05:21:29.133Z,99.90
2019-05-30T05:23:21.371Z,99.90
2019-05-30T05:25:15.311Z,99.90
2019-05-30T05:27:09.949Z,99.90
2019-05-30T05:29:01.738Z,99.90
2019-05-30T05:30:54.145Z,99.90
2019-05-30T05:32:46.173Z,99.90
2019-05-30T05:34:38.561Z,99.90
2019-05-30T05:36:30.875Z,99.90
2019-05-30T05:38:22.780Z,99.90
2019-05-30T05:40:16.058Z,99.90
2019-05-30T05:42:08.918Z,99.90
2019-05-30T05:44:01.400Z,99.90
2019-05-30T05:45:53.844Z,99.90
2019-05-30T05:47:46.988Z,99.90
2019-05-30T05:49:39.218Z,99.90
2019-05-30T05:51:31.664Z,99.90
2019-05-30T05:53:24.969Z,99.90
2019-05-30T05:55:17.324Z,99.90
2019-05-30T05:57:09.662Z,99.90
2019-05-30T05:59:02.235Z,99.90
2019-05-30T06:00:54.950Z,99.90
2019-05-30T06:02:47.382Z,99.90
2019-05-30T06:04:39.523Z,99.90
2019-05-30T06:06:31.756Z,99.90
2019-05-30T06:08:25.807Z,99.90
2019-05-30T06:10:18.015Z,99.90
2019-05-30T06:12:10.484Z,99.90
2019-05-30T06:14:02.667Z,99.90
2019-05-30T06:15:55.141Z,99.90
2019-05-30T06:17:47.537Z,99.90
2019-05-30T06:19:46.623Z,99.90
2019-05-30T06:21:33.519Z,99.90
2019-05-30T06:23:25.949Z,99.90
2019-05-30T06:25:19.029Z,99.90
2019-05-30T06:27:12.210Z,99.90
2019-05-30T06:29:04.626Z,99.90
2019-05-30T06:30:59.030Z,99.90
2019-05-30T06:32:50.777Z,99.90
2019-05-30T06:34:43.017Z,99.90
2019-05-30T06:36:35.639Z,99.90
2019-05-30T06:38:27.713Z,99.90
2019-05-30T06:40:19.913Z,99.90
2019-05-30T06:42:12.045Z,99.90
2019-05-30T06:44:05.726Z,99.90
2019-05-30T06:45:58.672Z,99.90
2019-05-30T06:47:50.831Z,99.90
2019-05-30T06:49:42.755Z,99.90
2019-05-30T06:51:34.678Z,99.90
2019-05-30T06:53:27.269Z,99.90
2019-05-30T06:55:21.001Z,99.90
2019-05-30T06:57:13.640Z,99.90
2019-05-30T06:59:05.867Z,99.90
2019-05-30T07:00:58.368Z,99.90
2019-05-30T07:02:50.904Z,99.90
2019-05-30T07:04:51.792Z,99.90
2019-05-30T07:06:37.509Z,99.90
2019-05-30T07:08:30.915Z,99.90
2019-05-30T07:10:24.819Z,99.90
2019-05-30T07:12:17.464Z,99.90
2019-05-30T07:14:09.538Z,99.90
2019-05-30T07:16:01.387Z,99.90
2019-05-30T07:17:53.259Z,99.90
2019-05-30T07:19:45.745Z,99.90
2019-05-30T07:21:38.761Z,99.90
2019-05-30T07:23:31.967Z,99.90
2019-05-30T07:25:25.695Z,99.90
2019-05-30T07:27:18.664Z,99.90
2019-05-30T07:29:11.008Z,99.90
2019-05-30T07:31:03.317Z,99.90
2019-05-30T07:32:55.814Z,99.90
2019-05-30T07:34:47.980Z,99.90
2019-05-30T07:36:41.487Z,99.90
2019-05-30T07:38:34.730Z,99.90
2019-05-30T07:40:26.839Z,99.90
2019-05-30T07:42:19.129Z,99.90
2019-05-30T07:44:11.264Z,99.30
2019-05-30T07:46:03.598Z,99.40
2019-05-30T07:47:57.555Z,99.90
2019-05-30T07:49:49.853Z,99.90
2019-05-30T07:51:42.074Z,99.10
2019-05-30T07:53:35.013Z,99.10
2019-05-30T07:55:28.815Z,99.90
2019-05-30T07:57:21.448Z,99.30
2019-05-30T07:59:13.468Z,99.00
2019-05-30T08:01:07.164Z,99.30
2019-05-30T08:03:00.105Z,99.00
2019-05-30T08:04:54.602Z,98.40
2019-05-30T08:06:49.133Z,98.20
2019-05-30T08:08:42.682Z,98.40
2019-05-30T08:10:36.088Z,98.30
2019-05-30T08:12:29.971Z,99.50
2019-05-30T08:14:24.632Z,98.10
2019-05-30T08:16:22.511Z,98.50
2019-05-30T08:18:15.750Z,99.90
2019-05-30T08:20:08.418Z,99.90
2019-05-30T08:22:00.775Z,97.60
2019-05-30T08:23:52.977Z,97.90
2019-05-30T08:25:45.338Z,97.90
2019-05-30T08:27:38.670Z,98.20
2019-05-30T08:29:32.114Z,97.60
2019-05-30T08:31:24.952Z,99.90
2019-05-30T08:33:17.152Z,99.30
2019-05-30T08:35:09.657Z,98.50
2019-05-30T08:37:01.877Z,98.30
2019-05-30T08:38:54.104Z,98.90
2019-05-30T08:40:46.423Z,99.50
2019-05-30T08:42:40.225Z,99.20
2019-05-30T08:44:33.744Z,99.20
2019-05-30T08:46:26.020Z,99.90
2019-05-30T08:48:18.414Z,99.90
2019-05-30T08:50:10.732Z,99.60
2019-05-30T08:52:03.079Z,98.70
2019-05-30T08:53:54.971Z,99.10
2019-05-30T08:55:46.885Z,99.90
2019-05-30T08:57:39.005Z,99.30
2019-05-30T08:59:32.352Z,98.90
2019-05-30T09:01:24.805Z,97.90
2019-05-30T09:03:17.240Z,95.80
2019-05-30T09:05:09.645Z,95.70
2019-05-30T09:07:01.728Z,94.20
2019-05-30T09:08:54.283Z,94.20
2019-05-30T09:10:46.580Z,92.60
2019-05-30T09:12:42.057Z,91.60
2019-05-30T09:14:32.554Z,90.80
2019-05-30T09:16:25.134Z,91.20
2019-05-30T09:18:17.405Z,91.10
2019-05-30T09:20:10.335Z,90.50
2019-05-30T09:22:02.764Z,91.30
2019-05-30T09:24:00.404Z,92.70
2019-05-30T09:25:50.263Z,91.80
2019-05-30T09:27:44.550Z,90.40
2019-05-30T09:29:37.902Z,90.20
2019-05-30T09:31:30.534Z,92.10
2019-05-30T09:33:22.587Z,92.30
2019-05-30T09:35:15.342Z,91.80
2019-05-30T09:37:07.887Z,92.10
2019-05-30T09:38:59.877Z,91.80
2019-05-30T09:40:51.865Z,92.30
2019-05-30T09:42:45.179Z,94.00
2019-05-30T09:44:40.520Z,93.40
2019-05-30T09:46:32.421Z,93.70
2019-05-30T09:48:24.773Z,93.40
2019-05-30T09:50:17.957Z,93.90
2019-05-30T09:52:10.100Z,95.60
2019-05-30T09:54:02.369Z,94.80
2019-05-30T09:55:54.772Z,94.10
2019-05-30T09:57:47.590Z,94.20
2019-05-30T09:59:41.573Z,94.10
2019-05-30T10:01:34.384Z,94.70
2019-05-30T10:03:26.277Z,94.10
2019-05-30T10:05:19.010Z,91.80
2019-05-30T10:07:12.068Z,91.20
2019-05-30T10:09:05.903Z,91.20
2019-05-30T10:10:58.144Z,91.60
2019-05-30T10:12:50.439Z,91.60
2019-05-30T10:14:32.688Z,91.30
2019-05-30T10:16:06.664Z,91.70
2019-05-30T10:17:40.368Z,90.50
2019-05-30T10:19:14.320Z,91.00
2019-05-30T10:20:49.422Z,91.00
2019-05-30T10:22:42.023Z,91.00
2019-05-30T10:24:16.432Z,90.10
2019-05-30T10:25:51.156Z,91.10
2019-05-30T10:27:25.907Z,91.10
2019-05-30T10:28:59.904Z,91.20
2019-05-30T10:30:33.948Z,91.80
2019-05-30T10:32:07.653Z,91.90
2019-05-30T10:33:42.319Z,90.90
2019-05-30T10:35:34.728Z,90.80
2019-05-30T10:37:26.749Z,91.20
2019-05-30T10:39:18.787Z,90.00
2019-05-30T10:41:10.872Z,90.70
2019-05-30T10:43:02.855Z,85.30
2019-05-30T10:44:56.356Z,87.70
2019-05-30T10:46:49.380Z,79.30
2019-05-30T10:48:43.002Z,85.30
2019-05-30T10:50:34.992Z,93.40
2019-05-30T10:52:27.527Z,89.30
2019-05-30T10:54:19.875Z,82.80
2019-05-30T10:56:12.445Z,83.70
2019-05-30T10:58:04.818Z,84.90
2019-05-30T10:59:56.821Z,84.40
2019-05-30T11:01:50.348Z,82.90
2019-05-30T11:05:17.112Z,76.40
2019-05-30T11:07:09.928Z,79.00
2019-05-30T11:08:30.725Z,82.10
2019-05-30T11:10:08.980Z,78.80
2019-05-30T11:12:00.937Z,82.00
2019-05-30T11:13:53.326Z,76.30
2019-05-30T11:15:46.887Z,79.40
2019-05-30T11:17:21.595Z,79.60
2019-05-30T11:18:56.182Z,80.90
2019-05-30T11:20:30.212Z,84.10
2019-05-30T11:22:03.930Z,83.30
2019-05-30T11:23:37.904Z,82.20
2019-05-30T11:25:11.620Z,83.00
2019-05-30T11:26:45.595Z,82.30
2019-05-30T11:28:19.234Z,83.20
2019-05-30T11:29:53.239Z,84.30
2019-05-30T11:31:27.697Z,84.80
2019-05-30T11:33:19.938Z,86.70
2019-05-30T11:35:12.463Z,90.20
2019-05-30T11:37:18.259Z,83.40
2019-05-30T11:38:59.447Z,85.70
2019-05-30T11:40:53.374Z,84.80
2019-05-30T11:42:45.901Z,84.80
2019-05-30T11:44:38.113Z,81.10
2019-05-30T11:46:30.537Z,80.90
2019-05-30T11:48:22.400Z,79.10
2019-05-30T11:50:14.797Z,79.90
2019-05-30T11:52:07.299Z,72.90
2019-05-30T11:54:01.000Z,75.10
2019-05-30T11:55:54.183Z,72.50
2019-05-30T11:57:46.329Z,67.10
2019-05-30T11:59:38.138Z,62.00
2019-05-30T12:01:30.748Z,62.20
2019-05-30T12:03:23.279Z,59.80
2019-05-30T12:05:17.015Z,56.80
2019-05-30T12:06:51.852Z,55.90
2019-05-30T12:08:27.678Z,52.80
2019-05-30T12:10:01.741Z,56.30
2019-05-30T12:11:36.413Z,55.50
2019-05-30T12:13:10.396Z,49.00
2019-05-30T12:14:43.988Z,46.50
2019-05-30T12:16:18.091Z,47.20
2019-05-30T12:17:51.680Z,50.00
2019-05-30T12:19:25.647Z,52.90
2019-05-30T12:20:59.817Z,52.60
2019-05-30T12:22:34.336Z,56.50
2019-05-30T12:24:26.745Z,56.20
2019-05-30T12:26:18.911Z,53.40
2019-05-30T12:28:11.097Z,54.70
2019-05-30T12:30:05.005Z,57.10
2019-05-30T12:31:59.955Z,61.70
2019-05-30T12:33:52.333Z,64.80
2019-05-30T12:35:44.852Z,66.90
2019-05-30T12:37:53.237Z,67.70
2019-05-30T12:39:31.673Z,67.70
2019-05-30T12:41:24.160Z,70.30
2019-05-30T12:43:16.318Z,69.40
2019-05-30T12:45:16.211Z,69.60
2019-05-30T12:47:08.652Z,72.50
2019-05-30T12:49:01.588Z,71.30
2019-05-30T12:50:55.183Z,71.20
2019-05-30T12:52:47.911Z,71.20
2019-05-30T12:54:39.960Z,67.60
2019-05-30T12:56:32.236Z,66.60
2019-05-30T12:58:24.583Z,69.10
2019-05-30T13:00:24.565Z,68.10
2019-05-30T13:02:16.604Z,66.50
2019-05-30T13:04:08.581Z,63.30
2019-05-30T13:06:01.213Z,61.20
2019-05-30T13:08:08.145Z,58.60
2019-05-30T13:09:47.254Z,59.00
2019-05-30T13:11:39.623Z,62.40
2019-05-30T13:13:31.656Z,63.70
2019-05-30T13:15:24.061Z,68.80
2019-05-30T13:16:58.082Z,66.60
2019-05-30T13:18:31.668Z,68.20
2019-05-30T13:20:07.788Z,63.60
2019-05-30T13:21:41.743Z,65.80
2019-05-30T13:23:15.921Z,70.10
2019-05-30T13:24:49.628Z,68.60
2019-05-30T13:26:23.660Z,69.30
2019-05-30T13:27:57.758Z,62.20
2019-05-30T13:29:50.505Z,60.50
2019-05-30T13:31:42.973Z,57.50
2019-05-30T13:33:38.287Z,54.00
2019-05-30T13:35:29.306Z,52.20
2019-05-30T13:37:21.639Z,52.10
2019-05-30T13:39:14.325Z,53.60
2019-05-30T13:41:07.751Z,56.70
2019-05-30T13:42:59.840Z,56.30
2019-05-30T13:44:52.293Z,56.40
2019-05-30T13:46:44.777Z,55.60
2019-05-30T13:48:36.915Z,54.50
2019-05-30T13:50:29.068Z,55.20
2019-05-30T13:52:21.390Z,56.70
2019-05-30T13:54:13.683Z,55.40
2019-05-30T13:56:05.974Z,56.30
2019-05-30T13:57:57.887Z,60.40
2019-05-30T13:59:50.487Z,61.90
2019-05-30T14:01:42.361Z,61.80
2019-05-30T14:03:34.814Z,59.30
2019-05-30T14:05:27.190Z,56.60
2019-05-30T14:07:19.465Z,57.10
2019-05-30T14:09:11.668Z,59.20
2019-05-30T14:11:04.646Z,61.50
2019-05-30T14:12:56.881Z,61.20
2019-05-30T14:14:49.077Z,60.60
2019-05-30T14:16:43.139Z,63.40
2019-05-30T14:18:35.909Z,68.80
2019-05-30T14:20:28.133Z,64.60
2019-05-30T14:22:20.341Z,69.90
2019-05-30T14:24:12.671Z,66.90
2019-05-30T14:26:05.362Z,66.20
2019-05-30T14:27:57.740Z,61.20
2019-05-30T14:29:49.889Z,55.20
2019-05-30T14:31:41.918Z,50.60
2019-05-30T14:33:34.588Z,49.00
2019-05-30T14:35:26.614Z,46.80
2019-05-30T14:37:19.060Z,47.10
2019-05-30T14:39:11.333Z,45.70
2019-05-30T14:41:04.818Z,43.10
2019-05-30T14:42:57.388Z,42.50
2019-05-30T14:44:50.834Z,43.40
2019-05-30T14:46:43.194Z,42.80
2019-05-30T14:48:35.749Z,44.90
2019-05-30T14:50:28.240Z,45.40
2019-05-30T14:52:23.979Z,46.20
2019-05-30T14:54:17.796Z,49.00
2019-05-30T14:56:11.077Z,46.70
2019-05-30T14:58:04.931Z,48.20
2019-05-30T14:59:57.495Z,48.80
2019-05-30T15:01:50.024Z,48.00
2019-05-30T15:03:41.946Z,49.50
2019-05-30T15:05:34.396Z,50.00
2019-05-30T15:07:26.814Z,49.80
2019-05-30T15:09:25.743Z,50.10
2019-05-30T15:11:13.786Z,50.00
2019-05-30T15:13:07.484Z,51.40
2019-05-30T15:15:00.488Z,51.00
2019-05-30T15:16:52.979Z,51.60
2019-05-30T15:18:46.298Z,51.40
2019-05-30T15:20:38.445Z,52.00
2019-05-30T15:22:30.560Z,50.60
2019-05-30T15:24:23.232Z,48.20
2019-05-30T15:26:16.302Z,48.50
2019-05-30T15:28:09.943Z,50.90
2019-05-30T15:30:02.973Z,48.00
2019-05-30T15:31:55.460Z,49.20
2019-05-30T15:33:47.814Z,54.50
2019-05-30T15:35:40.011Z,54.40
2019-05-30T15:37:31.987Z,54.90
2019-05-30T15:39:32.387Z,53.80
2019-05-30T15:41:18.469Z,55.00
2019-05-30T15:43:11.372Z,56.30
2019-05-30T15:45:05.709Z,57.00
2019-05-30T15:46:58.186Z,56.90
2019-05-30T15:48:50.821Z,59.30
2019-05-30T15:50:43.343Z,59.80
2019-05-30T15:52:35.599Z,60.40
2019-05-30T15:54:28.017Z,57.10
2019-05-30T15:56:19.941Z,57.20
2019-05-30T15:58:11.987Z,57.50
2019-05-30T16:00:08.110Z,56.70
2019-05-30T16:02:00.088Z,57.50
2019-05-30T16:03:52.663Z,59.70
2019-05-30T16:05:45.241Z,59.00
2019-05-30T16:07:37.837Z,61.00
2019-05-30T16:09:30.272Z,58.40
2019-05-30T16:11:22.608Z,58.50
2019-05-30T16:13:15.321Z,61.30
2019-05-30T16:15:09.210Z,63.50
2019-05-30T16:17:02.212Z,63.90
2019-05-30T16:18:54.659Z,63.50
2019-05-30T16:20:46.730Z,62.00
2019-05-30T16:22:38.713Z,62.00
2019-05-30T16:24:31.464Z,62.40
2019-05-30T16:26:24.031Z,63.90
2019-05-30T16:28:16.026Z,64.80
2019-05-30T16:30:09.730Z,63.10
2019-05-30T16:32:01.737Z,63.30
2019-05-30T16:33:55.372Z,62.50
2019-05-30T16:35:47.757Z,63.50
2019-05-30T16:37:40.293Z,64.30
2019-05-30T16:39:32.360Z,65.00
2019-05-30T16:41:24.504Z,65.80
2019-05-30T16:43:16.838Z,66.30
2019-05-30T16:45:10.046Z,68.20
2019-05-30T16:47:02.212Z,62.40
2019-05-30T16:48:54.407Z,63.40
2019-05-30T16:50:46.221Z,62.40
2019-05-30T16:52:38.855Z,61.60
2019-05-30T16:54:31.096Z,60.00
2019-05-30T16:56:23.842Z,61.90
2019-05-30T16:58:16.023Z,61.30
2019-05-30T17:00:09.405Z,60.80
2019-05-30T17:02:03.559Z,58.20
2019-05-30T17:03:55.744Z,60.20
2019-05-30T17:05:47.623Z,59.50
2019-05-30T17:07:40.072Z,60.80
2019-05-30T17:09:32.280Z,59.50
2019-05-30T17:11:25.508Z,58.40
2019-05-30T17:13:18.024Z,59.40
2019-05-30T17:15:11.651Z,59.60
2019-05-30T17:17:04.148Z,59.00
2019-05-30T17:18:56.711Z,59.20
2019-05-30T17:20:49.231Z,58.90
2019-05-30T17:22:41.402Z,60.30
2019-05-30T17:24:33.553Z,59.70
2019-05-30T17:26:25.426Z,58.30
2019-05-30T17:28:18.125Z,59.00
2019-05-30T17:30:11.469Z,60.60
2019-05-30T17:32:03.992Z,59.90
2019-05-30T17:33:57.275Z,60.70
2019-05-30T17:35:49.139Z,60.10
2019-05-30T17:37:41.254Z,60.60
2019-05-30T17:39:33.664Z,62.90
2019-05-30T17:41:26.802Z,62.80
2019-05-30T17:43:18.916Z,63.20
2019-05-30T17:45:12.202Z,61.30
2019-05-30T17:47:04.894Z,61.70
2019-05-30T17:48:57.264Z,63.80
2019-05-30T17:50:50.095Z,63.00
2019-05-30T17:52:42.090Z,62.70
2019-05-30T17:54:34.283Z,64.70
2019-05-30T17:56:26.315Z,65.80
2019-05-30T17:58:18.316Z,64.40
2019-05-30T18:00:12.711Z,67.20
2019-05-30T18:02:04.719Z,68.10
2019-05-30T18:03:57.078Z,63.20
2019-05-30T18:05:49.105Z,63.00
2019-05-30T18:08:06.066Z,63.00
2019-05-30T18:09:57.995Z,63.60
2019-05-30T18:11:52.362Z,63.90
2019-05-30T18:13:43.702Z,63.10
2019-05-30T18:15:35.945Z,64.60
2019-05-30T18:17:29.201Z,65.30
2019-05-30T18:19:23.344Z,66.40
2019-05-30T18:21:15.997Z,66.40
2019-05-30T18:23:08.279Z,70.50
2019-05-30T18:25:00.709Z,70.30
2019-05-30T18:26:53.056Z,67.90
2019-05-30T18:28:45.522Z,69.60
2019-05-30T18:30:38.956Z,69.60
2019-05-30T18:32:30.938Z,68.30
2019-05-30T18:34:24.080Z,69.90
2019-05-30T18:36:16.473Z,70.10
2019-05-30T18:37:50.568Z,71.20
2019-05-30T18:39:24.510Z,74.00
2019-05-30T18:41:10.822Z,72.40
2019-05-30T18:42:35.847Z,73.40
2019-05-30T18:44:09.937Z,76.10
2019-05-30T18:45:44.767Z,73.90
2019-05-30T18:47:37.277Z,72.20
2019-05-30T18:49:29.511Z,73.50
2019-05-30T18:51:21.604Z,74.40
2019-05-30T18:53:14.124Z,74.50
2019-05-30T18:54:48.112Z,74.40
2019-05-30T18:56:40.566Z,76.30
2019-05-30T18:58:33.338Z,73.60
2019-05-30T19:00:26.918Z,76.30
2019-05-30T19:02:19.562Z,77.80
2019-05-30T19:04:13.309Z,77.40
2019-05-30T19:06:05.781Z,77.00
2019-05-30T19:07:58.394Z,78.30
2019-05-30T19:09:50.427Z,80.80
2019-05-30T19:11:42.911Z,81.60
2019-05-30T19:13:37.226Z,82.70
2019-05-30T19:15:32.607Z,81.40
2019-05-30T19:17:25.352Z,82.20
2019-05-30T19:19:17.843Z,81.40
2019-05-30T19:21:10.357Z,81.10
2019-05-30T19:23:02.934Z,81.80
2019-05-30T19:24:56.449Z,84.30
2019-05-30T19:26:49.431Z,83.20
2019-05-30T19:28:42.081Z,83.20
2019-05-30T19:30:34.895Z,82.60
2019-05-30T19:32:28.582Z,84.50
2019-05-30T19:34:21.358Z,86.20
2019-05-30T19:36:14.044Z,85.80
2019-05-30T19:38:06.540Z,84.00
2019-05-30T19:39:58.689Z,84.70
2019-05-30T19:41:57.116Z,82.50
2019-05-30T19:43:45.634Z,84.90
2019-05-30T19:45:38.852Z,83.60
2019-05-30T19:47:32.366Z,87.10
2019-05-30T19:49:26.570Z,87.90
2019-05-30T19:51:21.057Z,87.30
2019-05-30T19:53:14.733Z,87.50
2019-05-30T19:55:08.312Z,88.90
2019-05-30T19:57:01.377Z,89.00
2019-05-30T19:58:53.923Z,90.60
2019-05-30T20:00:57.937Z,90.60
2019-05-30T20:02:40.635Z,90.80
2019-05-30T20:04:34.239Z,88.90
2019-05-30T20:06:26.741Z,90.30
2019-05-30T20:08:19.298Z,91.80
2019-05-30T20:10:12.412Z,90.00
2019-05-30T20:12:08.752Z,89.80
2019-05-30T20:13:59.161Z,91.80
2019-05-30T20:15:51.996Z,92.40
2019-05-30T20:17:44.744Z,92.40
2019-05-30T20:19:37.788Z,92.90
2019-05-30T20:21:31.640Z,93.40
2019-05-30T20:23:24.028Z,93.60
2019-05-30T20:25:16.976Z,92.60
2019-05-30T20:27:09.520Z,91.80
2019-05-30T20:29:01.882Z,91.70
2019-05-30T20:30:54.475Z,92.90
2019-05-30T20:32:47.199Z,94.40
2019-05-30T20:34:40.846Z,95.20
2019-05-30T20:36:33.054Z,94.80
2019-05-30T20:38:25.375Z,95.00
2019-05-30T20:40:17.443Z,94.20
2019-05-30T20:42:18.730Z,94.90
2019-05-30T20:44:04.326Z,96.10
2019-05-30T20:45:57.026Z,94.90
2019-05-30T20:47:49.526Z,94.70
2019-05-30T20:49:41.768Z,94.80
2019-05-30T20:51:35.501Z,95.30
2019-05-30T20:53:28.070Z,95.30
2019-05-30T20:55:20.261Z,95.40
2019-05-30T20:57:12.534Z,95.40
2019-05-30T20:59:04.873Z,95.50
2019-05-30T21:00:57.202Z,95.50
2019-05-30T21:02:49.642Z,95.70
2019-05-30T21:04:42.980Z,95.50
2019-05-30T21:06:36.610Z,96.00
2019-05-30T21:08:29.326Z,95.10
2019-05-30T21:10:21.772Z,95.50
2019-05-30T21:12:15.136Z,95.70
2019-05-30T21:14:07.464Z,95.80
2019-05-30T21:16:02.194Z,95.80
2019-05-30T21:17:55.800Z,95.50
2019-05-30T21:19:47.845Z,95.80
2019-05-30T21:21:40.384Z,95.90
2019-05-30T21:23:32.832Z,96.10
2019-05-30T21:25:25.275Z,96.30
2019-05-30T21:27:17.717Z,96.50
2019-05-30T21:29:10.220Z,96.70
2019-05-30T21:31:02.691Z,96.90
2019-05-30T21:32:54.952Z,97.00
2019-05-30T21:34:48.487Z,97.40
2019-05-30T21:36:42.036Z,97.40
2019-05-30T21:38:34.407Z,97.70
2019-05-30T21:40:26.740Z,97.80
2019-05-30T21:42:19.077Z,97.90
2019-05-30T21:44:12.732Z,98.00
2019-05-30T21:46:04.892Z,98.30
2019-05-30T21:47:57.314Z,98.50
2019-05-30T21:49:49.288Z,98.70
2019-05-30T21:51:41.412Z,98.80
2019-05-30T21:53:34.557Z,98.90
2019-05-30T21:55:26.521Z,99.40
2019-05-30T21:57:02.752Z,99.70
2019-05-30T21:58:55.033Z,99.80
2019-05-30T22:00:50.708Z,99.90
2019-05-30T22:02:46.643Z,99.90
2019-05-30T22:04:40.412Z,99.90
2019-05-30T22:06:32.865Z,99.90
2019-05-30T22:08:24.716Z,99.90
2019-05-30T22:10:17.211Z,99.90
2019-05-30T22:12:09.833Z,99.90
2019-05-30T22:14:01.793Z,99.90
2019-05-30T22:15:53.979Z,99.90
2019-05-30T22:17:46.278Z,99.90
2019-05-30T22:19:38.434Z,99.90
2019-05-30T22:21:30.647Z,99.90
2019-05-30T22:23:22.717Z,99.90
2019-05-30T22:25:15.029Z,99.90
2019-05-30T22:27:07.426Z,99.90
2019-05-30T22:28:59.576Z,99.90
2019-05-30T22:30:52.846Z,99.90
2019-05-30T22:32:46.645Z,99.90
2019-05-30T22:34:38.985Z,99.90
2019-05-30T22:36:31.152Z,99.90
2019-05-30T22:38:23.103Z,99.90
2019-05-30T22:40:15.501Z,99.90
2019-05-30T22:42:08.112Z,99.90
2019-05-30T22:44:01.564Z,99.90
2019-05-30T22:45:53.670Z,99.90
2019-05-30T22:47:46.344Z,99.90
2019-05-30T22:49:38.725Z,99.90
2019-05-30T22:51:31.004Z,99.90
2019-05-30T22:53:23.319Z,99.90
2019-05-30T22:55:15.678Z,99.90
2019-05-30T22:57:07.658Z,99.90
2019-05-30T22:59:01.377Z,99.90
2019-05-30T23:00:54.082Z,99.90
2019-05-30T23:02:47.908Z,99.90
2019-05-30T23:04:40.237Z,99.90
2019-05-30T23:06:32.088Z,99.90
2019-05-30T23:08:24.400Z,99.90
2019-05-30T23:10:16.381Z,99.90
2019-05-30T23:12:08.880Z,99.90
2019-05-30T23:14:00.757Z,99.90
2019-05-30T23:15:54.179Z,99.90
2019-05-30T23:17:48.241Z,99.90
2019-05-30T23:19:40.573Z,99.90
2019-05-30T23:21:32.711Z,99.90
2019-05-30T23:23:24.872Z,99.90
2019-05-30T23:25:16.824Z,99.90
2019-05-30T23:27:09.030Z,99.90
2019-05-30T23:29:01.239Z,99.90
2019-05-30T23:30:53.945Z,99.90
2019-05-30T23:32:46.513Z,99.90
2019-05-30T23:34:38.527Z,99.90
2019-05-30T23:36:30.729Z,99.90
2019-05-30T23:38:23.208Z,99.90
2019-05-30T23:40:17.644Z,99.90
2019-05-30T23:42:09.859Z,99.90
2019-05-30T23:44:09.662Z,99.90
2019-05-30T23:45:57.418Z,99.90
2019-05-30T23:47:49.922Z,99.90
2019-05-30T23:49:43.240Z,99.90
2019-05-30T23:51:35.108Z,99.90
2019-05-30T23:53:27.503Z,99.90
2019-05-30T23:55:19.803Z,99.90
2019-05-30T23:57:12.139Z,99.90
2019-05-30T23:59:04.281Z,99.90
